HDAM/JIB METAR and TAF weather

Enter ICAO airport designator
Station Type Date Time Source
HDAM METAR 2022/06/28 15:00 UTC NOAA

HDAM 281500Z 09008KT 7000 HZ SKC 35/21 Q1000


Station Type Date Time Source
HDAM Decoded METAR 2022/06/28 15:00 UTC NOAA

Djibouti \ Ambouli, Djibouti (HDAM) 11-33N 043-10E
Jun 28, 2022 - 11:00 AM EDT / 2022.06.28 1500 UTC
Wind: from the E (090 degrees) at 9 MPH (8 KT):0
Visibility: 4 mile(s):0
Sky conditions: clear
Weather: haze
Temperature: 95 F (35 C)
Heat index: 101.3 F (38.5 C):1
Dew Point: 69 F (21 C)
Relative Humidity: 44%
Pressure (altimeter): 29.53 in. Hg (1000 hPa)
ob: HDAM 281500Z 09008KT 7000 HZ SKC 35/21 Q1000
cycle: 15

Station Type Date Time Source
HDAM TAF 2022/06/28 12:33 UTC NOAA

TAF TAF HDAM 281100Z 2812/2912 27012G18KT 6000 BLDU FEW133
BECMG 2815/2818 06010G15KT 8000 HZ SKC
BECMG 2815/2818 VRB05KT 9000 HZ SKC
BECMG 2900/2906 22012KT 7000 HZ SCT133

Example: see airport list